sensor_id;sensor_type;location;lat;lon;timestamp;P1;durP1;ratioP1;P2;durP2;ratioP2
46561;SDS011;32289;42.688;23.330;2023-09-19T00:03:08;5.68;;;3.03;;
46561;SDS011;32289;42.688;23.330;2023-09-19T00:06:49;8.43;;;3.17;;
46561;SDS011;32289;42.688;23.330;2023-09-19T00:10:30;6.53;;;3.05;;
46561;SDS011;32289;42.688;23.330;2023-09-19T00:14:14;6.57;;;3.30;;
46561;SDS011;32289;42.688;23.330;2023-09-19T00:17:56;5.10;;;3.05;;
46561;SDS011;32289;42.688;23.330;2023-09-19T00:21:37;5.38;;;2.80;;
46561;SDS011;32289;42.688;23.330;2023-09-19T00:25:17;7.22;;;3.30;;
46561;SDS011;32289;42.688;23.330;2023-09-19T00:28:58;5.22;;;2.92;;
46561;SDS011;32289;42.688;23.330;2023-09-19T00:32:48;6.55;;;4.22;;
46561;SDS011;32289;42.688;23.330;2023-09-19T00:36:32;5.55;;;2.90;;
46561;SDS011;32289;42.688;23.330;2023-09-19T00:40:13;6.43;;;3.05;;
46561;SDS011;32289;42.688;23.330;2023-09-19T00:43:55;7.10;;;3.13;;
46561;SDS011;32289;42.688;23.330;2023-09-19T00:47:37;7.45;;;3.17;;
46561;SDS011;32289;42.688;23.330;2023-09-19T00:51:22;7.32;;;3.38;;
46561;SDS011;32289;42.688;23.330;2023-09-19T00:55:05;10.32;;;4.07;;
46561;SDS011;32289;42.688;23.330;2023-09-19T00:58:47;5.75;;;3.40;;
46561;SDS011;32289;42.688;23.330;2023-09-19T01:02:28;8.43;;;3.20;;
46561;SDS011;32289;42.688;23.330;2023-09-19T01:06:10;8.98;;;3.85;;
46561;SDS011;32289;42.688;23.330;2023-09-19T01:09:50;5.47;;;3.30;;
46561;SDS011;32289;42.688;23.330;2023-09-19T01:14:34;9.70;;;3.70;;
46561;SDS011;32289;42.688;23.330;2023-09-19T01:17:49;6.85;;;3.45;;
46561;SDS011;32289;42.688;23.330;2023-09-19T01:29:46;6.68;;;3.47;;
46561;SDS011;32289;42.688;23.330;2023-09-19T01:33:53;10.20;;;3.95;;
46561;SDS011;32289;42.688;23.330;2023-09-19T01:37:40;6.88;;;4.20;;
46561;SDS011;32289;42.688;23.330;2023-09-19T01:41:29;12.80;;;4.43;;
46561;SDS011;32289;42.688;23.330;2023-09-19T01:57:49;8.27;;;4.55;;
46561;SDS011;32289;42.688;23.330;2023-09-19T02:01:37;10.93;;;4.38;;
46561;SDS011;32289;42.688;23.330;2023-09-19T02:05:24;5.88;;;3.25;;
46561;SDS011;32289;42.688;23.330;2023-09-19T02:09:05;6.97;;;4.25;;
46561;SDS011;32289;42.688;23.330;2023-09-19T02:12:47;8.23;;;4.68;;
46561;SDS011;32289;42.688;23.330;2023-09-19T02:16:27;7.68;;;4.25;;
46561;SDS011;32289;42.688;23.330;2023-09-19T02:20:09;8.40;;;4.30;;
46561;SDS011;32289;42.688;23.330;2023-09-19T02:23:55;7.82;;;4.38;;
46561;SDS011;32289;42.688;23.330;2023-09-19T02:27:36;6.70;;;3.97;;
46561;SDS011;32289;42.688;23.330;2023-09-19T02:31:18;14.02;;;4.68;;
46561;SDS011;32289;42.688;23.330;2023-09-19T02:34:59;8.32;;;3.78;;
46561;SDS011;32289;42.688;23.330;2023-09-19T02:38:39;8.52;;;4.60;;
46561;SDS011;32289;42.688;23.330;2023-09-19T02:42:20;7.40;;;4.07;;
46561;SDS011;32289;42.688;23.330;2023-09-19T02:46:01;11.35;;;4.35;;
46561;SDS011;32289;42.688;23.330;2023-09-19T02:49:43;8.90;;;4.15;;
46561;SDS011;32289;42.688;23.330;2023-09-19T02:53:23;14.32;;;4.45;;
46561;SDS011;32289;42.688;23.330;2023-09-19T02:57:04;7.57;;;4.18;;
46561;SDS011;32289;42.688;23.330;2023-09-19T03:00:46;8.10;;;4.15;;
46561;SDS011;32289;42.688;23.330;2023-09-19T03:04:27;7.72;;;4.05;;
46561;SDS011;32289;42.688;23.330;2023-09-19T03:08:08;9.95;;;4.28;;
46561;SDS011;32289;42.688;23.330;2023-09-19T03:11:50;6.00;;;3.35;;
46561;SDS011;32289;42.688;23.330;2023-09-19T03:15:30;11.10;;;4.20;;
46561;SDS011;32289;42.688;23.330;2023-09-19T03:19:11;9.57;;;4.63;;
46561;SDS011;32289;42.688;23.330;2023-09-19T03:22:52;7.20;;;4.28;;
46561;SDS011;32289;42.688;23.330;2023-09-19T03:26:33;6.43;;;3.67;;
46561;SDS011;32289;42.688;23.330;2023-09-19T03:30:13;8.70;;;3.95;;
46561;SDS011;32289;42.688;23.330;2023-09-19T03:33:54;6.45;;;4.03;;
46561;SDS011;32289;42.688;23.330;2023-09-19T03:37:35;14.35;;;4.35;;
46561;SDS011;32289;42.688;23.330;2023-09-19T03:41:16;9.85;;;4.15;;
46561;SDS011;32289;42.688;23.330;2023-09-19T03:44:57;7.30;;;4.10;;
46561;SDS011;32289;42.688;23.330;2023-09-19T03:48:39;9.60;;;4.55;;
46561;SDS011;32289;42.688;23.330;2023-09-19T03:52:20;8.23;;;4.15;;
46561;SDS011;32289;42.688;23.330;2023-09-19T03:56:01;9.63;;;4.55;;
46561;SDS011;32289;42.688;23.330;2023-09-19T03:59:42;9.25;;;4.43;;
46561;SDS011;32289;42.688;23.330;2023-09-19T04:03:24;9.02;;;4.90;;
46561;SDS011;32289;42.688;23.330;2023-09-19T04:07:14;8.77;;;4.65;;
46561;SDS011;32289;42.688;23.330;2023-09-19T04:10:55;9.40;;;4.95;;
46561;SDS011;32289;42.688;23.330;2023-09-19T04:14:39;14.18;;;5.25;;
46561;SDS011;32289;42.688;23.330;2023-09-19T04:18:20;10.65;;;5.38;;
46561;SDS011;32289;42.688;23.330;2023-09-19T04:22:03;12.13;;;4.80;;
46561;SDS011;32289;42.688;23.330;2023-09-19T04:25:44;13.02;;;5.25;;
46561;SDS011;32289;42.688;23.330;2023-09-19T04:29:25;9.38;;;4.63;;
46561;SDS011;32289;42.688;23.330;2023-09-19T04:33:09;13.88;;;5.97;;
46561;SDS011;32289;42.688;23.330;2023-09-19T04:36:50;36.60;;;7.15;;
46561;SDS011;32289;42.688;23.330;2023-09-19T04:40:31;15.13;;;4.97;;
46561;SDS011;32289;42.688;23.330;2023-09-19T04:44:12;12.27;;;4.25;;
46561;SDS011;32289;42.688;23.330;2023-09-19T04:47:53;8.88;;;4.20;;
46561;SDS011;32289;42.688;23.330;2023-09-19T04:51:34;8.25;;;4.65;;
46561;SDS011;32289;42.688;23.330;2023-09-19T04:55:16;10.52;;;4.63;;
46561;SDS011;32289;42.688;23.330;2023-09-19T04:58:58;8.90;;;4.43;;
46561;SDS011;32289;42.688;23.330;2023-09-19T05:02:43;9.77;;;4.18;;
46561;SDS011;32289;42.688;23.330;2023-09-19T05:06:23;10.05;;;4.20;;
46561;SDS011;32289;42.688;23.330;2023-09-19T05:10:06;7.35;;;3.58;;
46561;SDS011;32289;42.688;23.330;2023-09-19T05:13:48;8.40;;;4.65;;
46561;SDS011;32289;42.688;23.330;2023-09-19T05:17:36;5.95;;;4.00;;
46561;SDS011;32289;42.688;23.330;2023-09-19T05:21:16;7.15;;;4.10;;
46561;SDS011;32289;42.688;23.330;2023-09-19T05:24:58;6.05;;;3.58;;
46561;SDS011;32289;42.688;23.330;2023-09-19T05:28:38;6.13;;;4.05;;
46561;SDS011;32289;42.688;23.330;2023-09-19T05:32:19;12.80;;;4.30;;
46561;SDS011;32289;42.688;23.330;2023-09-19T05:36:00;10.15;;;4.25;;
46561;SDS011;32289;42.688;23.330;2023-09-19T05:39:40;11.32;;;3.72;;
46561;SDS011;32289;42.688;23.330;2023-09-19T05:43:21;9.13;;;3.50;;
46561;SDS011;32289;42.688;23.330;2023-09-19T05:47:02;5.93;;;3.72;;
46561;SDS011;32289;42.688;23.330;2023-09-19T05:50:43;5.80;;;4.10;;
46561;SDS011;32289;42.688;23.330;2023-09-19T05:54:28;6.47;;;3.70;;
46561;SDS011;32289;42.688;23.330;2023-09-19T05:58:16;6.65;;;3.55;;
46561;SDS011;32289;42.688;23.330;2023-09-19T06:01:57;10.20;;;4.63;;
46561;SDS011;32289;42.688;23.330;2023-09-19T06:05:39;6.20;;;3.60;;
46561;SDS011;32289;42.688;23.330;2023-09-19T06:09:23;5.32;;;3.28;;
46561;SDS011;32289;42.688;23.330;2023-09-19T06:13:04;8.38;;;3.58;;
46561;SDS011;32289;42.688;23.330;2023-09-19T06:16:46;7.70;;;4.05;;
46561;SDS011;32289;42.688;23.330;2023-09-19T06:20:27;7.57;;;3.00;;
46561;SDS011;32289;42.688;23.330;2023-09-19T06:24:08;6.90;;;3.00;;
46561;SDS011;32289;42.688;23.330;2023-09-19T06:27:49;6.55;;;2.95;;
46561;SDS011;32289;42.688;23.330;2023-09-19T06:31:35;6.78;;;3.40;;
46561;SDS011;32289;42.688;23.330;2023-09-19T06:35:18;7.20;;;3.10;;
46561;SDS011;32289;42.688;23.330;2023-09-19T06:39:01;6.90;;;3.58;;
46561;SDS011;32289;42.688;23.330;2023-09-19T06:42:45;5.90;;;3.15;;
46561;SDS011;32289;42.688;23.330;2023-09-19T06:46:30;8.05;;;3.05;;
46561;SDS011;32289;42.688;23.330;2023-09-19T06:50:15;6.70;;;3.03;;
46561;SDS011;32289;42.688;23.330;2023-09-19T06:53:59;9.27;;;3.38;;
46561;SDS011;32289;42.688;23.330;2023-09-19T06:57:44;6.18;;;3.22;;
46561;SDS011;32289;42.688;23.330;2023-09-19T07:01:25;8.15;;;3.20;;
46561;SDS011;32289;42.688;23.330;2023-09-19T07:05:06;6.57;;;3.45;;
46561;SDS011;32289;42.688;23.330;2023-09-19T07:08:47;5.38;;;2.67;;
46561;SDS011;32289;42.688;23.330;2023-09-19T07:12:30;7.20;;;3.20;;
46561;SDS011;32289;42.688;23.330;2023-09-19T07:16:12;6.80;;;3.08;;
46561;SDS011;32289;42.688;23.330;2023-09-19T07:19:53;4.88;;;3.08;;
46561;SDS011;32289;42.688;23.330;2023-09-19T07:23:35;7.63;;;3.33;;
46561;SDS011;32289;42.688;23.330;2023-09-19T07:27:16;8.93;;;2.47;;
46561;SDS011;32289;42.688;23.330;2023-09-19T07:30:56;8.43;;;3.30;;
46561;SDS011;32289;42.688;23.330;2023-09-19T07:34:37;6.53;;;2.90;;
46561;SDS011;32289;42.688;23.330;2023-09-19T07:38:20;6.28;;;3.22;;
46561;SDS011;32289;42.688;23.330;2023-09-19T07:42:02;8.05;;;3.47;;
46561;SDS011;32289;42.688;23.330;2023-09-19T07:45:43;7.18;;;3.22;;
46561;SDS011;32289;42.688;23.330;2023-09-19T07:49:24;11.75;;;5.43;;
46561;SDS011;32289;42.688;23.330;2023-09-19T07:53:05;5.30;;;3.42;;
46561;SDS011;32289;42.688;23.330;2023-09-19T07:56:45;7.55;;;2.95;;
46561;SDS011;32289;42.688;23.330;2023-09-19T08:00:26;4.22;;;2.80;;
46561;SDS011;32289;42.688;23.330;2023-09-19T08:04:08;8.98;;;5.57;;
46561;SDS011;32289;42.688;23.330;2023-09-19T08:07:48;4.93;;;2.72;;
46561;SDS011;32289;42.688;23.330;2023-09-19T08:11:34;7.97;;;3.80;;
46561;SDS011;32289;42.688;23.330;2023-09-19T08:15:15;12.93;;;3.72;;
46561;SDS011;32289;42.688;23.330;2023-09-19T08:18:59;6.07;;;3.20;;
46561;SDS011;32289;42.688;23.330;2023-09-19T08:22:39;6.40;;;3.30;;
46561;SDS011;32289;42.688;23.330;2023-09-19T08:26:20;7.15;;;2.90;;
46561;SDS011;32289;42.688;23.330;2023-09-19T08:30:01;11.10;;;4.55;;
46561;SDS011;32289;42.688;23.330;2023-09-19T08:33:43;6.07;;;2.97;;
46561;SDS011;32289;42.688;23.330;2023-09-19T08:37:28;7.22;;;3.25;;
46561;SDS011;32289;42.688;23.330;2023-09-19T08:41:09;6.97;;;3.40;;
46561;SDS011;32289;42.688;23.330;2023-09-19T08:44:50;10.55;;;3.53;;
46561;SDS011;32289;42.688;23.330;2023-09-19T08:48:31;4.70;;;3.10;;
46561;SDS011;32289;42.688;23.330;2023-09-19T08:52:37;7.63;;;3.47;;
46561;SDS011;32289;42.688;23.330;2023-09-19T08:56:20;10.60;;;4.55;;
46561;SDS011;32289;42.688;23.330;2023-09-19T09:00:04;6.75;;;4.05;;
46561;SDS011;32289;42.688;23.330;2023-09-19T09:03:53;9.40;;;3.40;;
46561;SDS011;32289;42.688;23.330;2023-09-19T09:07:35;6.47;;;3.75;;
46561;SDS011;32289;42.688;23.330;2023-09-19T09:11:20;7.05;;;3.78;;
46561;SDS011;32289;42.688;23.330;2023-09-19T09:15:04;7.22;;;3.75;;
46561;SDS011;32289;42.688;23.330;2023-09-19T09:18:46;12.55;;;4.80;;
46561;SDS011;32289;42.688;23.330;2023-09-19T09:22:32;8.77;;;4.95;;
46561;SDS011;32289;42.688;23.330;2023-09-19T09:26:13;9.57;;;3.67;;
46561;SDS011;32289;42.688;23.330;2023-09-19T09:29:54;6.85;;;3.42;;
46561;SDS011;32289;42.688;23.330;2023-09-19T09:33:35;11.02;;;4.57;;
46561;SDS011;32289;42.688;23.330;2023-09-19T09:37:16;6.07;;;3.80;;
46561;SDS011;32289;42.688;23.330;2023-09-19T09:41:02;5.32;;;4.10;;
46561;SDS011;32289;42.688;23.330;2023-09-19T09:44:53;6.03;;;3.78;;
46561;SDS011;32289;42.688;23.330;2023-09-19T09:49:05;11.43;;;3.55;;
46561;SDS011;32289;42.688;23.330;2023-09-19T09:52:59;5.93;;;3.40;;
46561;SDS011;32289;42.688;23.330;2023-09-19T09:56:56;8.57;;;3.53;;
46561;SDS011;32289;42.688;23.330;2023-09-19T10:00:53;7.00;;;3.10;;
46561;SDS011;32289;42.688;23.330;2023-09-19T10:04:42;9.75;;;4.05;;
46561;SDS011;32289;42.688;23.330;2023-09-19T10:08:31;5.57;;;3.30;;
46561;SDS011;32289;42.688;23.330;2023-09-19T10:12:12;9.10;;;3.90;;
46561;SDS011;32289;42.688;23.330;2023-09-19T10:15:56;6.72;;;3.28;;
46561;SDS011;32289;42.688;23.330;2023-09-19T10:23:32;9.43;;;3.35;;
46561;SDS011;32289;42.688;23.330;2023-09-19T10:27:14;6.00;;;3.55;;
46561;SDS011;32289;42.688;23.330;2023-09-19T10:30:57;11.02;;;3.03;;
46561;SDS011;32289;42.688;23.330;2023-09-19T10:34:39;6.32;;;3.85;;
46561;SDS011;32289;42.688;23.330;2023-09-19T10:38:23;5.18;;;3.28;;
46561;SDS011;32289;42.688;23.330;2023-09-19T10:42:05;12.07;;;4.88;;
46561;SDS011;32289;42.688;23.330;2023-09-19T10:45:49;11.65;;;3.60;;
46561;SDS011;32289;42.688;23.330;2023-09-19T10:49:32;8.13;;;4.35;;
46561;SDS011;32289;42.688;23.330;2023-09-19T10:53:13;7.10;;;3.10;;
46561;SDS011;32289;42.688;23.330;2023-09-19T10:56:55;7.75;;;3.78;;
46561;SDS011;32289;42.688;23.330;2023-09-19T11:00:57;5.95;;;3.85;;
46561;SDS011;32289;42.688;23.330;2023-09-19T11:04:49;6.45;;;3.42;;
46561;SDS011;32289;42.688;23.330;2023-09-19T11:16:17;12.93;;;4.30;;
46561;SDS011;32289;42.688;23.330;2023-09-19T11:24:34;6.35;;;3.25;;
46561;SDS011;32289;42.688;23.330;2023-09-19T11:32:01;6.47;;;4.65;;
46561;SDS011;32289;42.688;23.330;2023-09-19T11:36:00;8.13;;;4.15;;
46561;SDS011;32289;42.688;23.330;2023-09-19T11:47:50;8.05;;;3.58;;
46561;SDS011;32289;42.688;23.330;2023-09-19T11:51:37;10.02;;;5.93;;
46561;SDS011;32289;42.688;23.330;2023-09-19T11:55:22;7.63;;;3.88;;
46561;SDS011;32289;42.688;23.330;2023-09-19T11:59:13;5.82;;;3.67;;
46561;SDS011;32289;42.688;23.330;2023-09-19T12:03:05;8.88;;;4.47;;
46561;SDS011;32289;42.688;23.330;2023-09-19T12:06:56;6.57;;;4.03;;
46561;SDS011;32289;42.688;23.330;2023-09-19T12:10:47;5.30;;;3.73;;
46561;SDS011;32289;42.688;23.330;2023-09-19T12:14:29;5.47;;;4.05;;
46561;SDS011;32289;42.688;23.330;2023-09-19T12:18:27;6.80;;;4.28;;
46561;SDS011;32289;42.688;23.330;2023-09-19T12:22:09;6.82;;;4.13;;
46561;SDS011;32289;42.688;23.330;2023-09-19T12:25:50;8.88;;;4.38;;
46561;SDS011;32289;42.688;23.330;2023-09-19T12:33:24;8.85;;;3.85;;
46561;SDS011;32289;42.688;23.330;2023-09-19T12:40:53;8.00;;;4.32;;
46561;SDS011;32289;42.688;23.330;2023-09-19T12:44:46;6.93;;;3.70;;
46561;SDS011;32289;42.688;23.330;2023-09-19T12:48:35;14.38;;;4.03;;
46561;SDS011;32289;42.688;23.330;2023-09-19T12:52:17;9.23;;;3.67;;
46561;SDS011;32289;42.688;23.330;2023-09-19T12:56:00;8.27;;;4.07;;
46561;SDS011;32289;42.688;23.330;2023-09-19T12:59:41;5.68;;;3.58;;
46561;SDS011;32289;42.688;23.330;2023-09-19T13:03:28;6.78;;;4.78;;
46561;SDS011;32289;42.688;23.330;2023-09-19T13:07:39;6.07;;;4.60;;
46561;SDS011;32289;42.688;23.330;2023-09-19T13:11:35;6.55;;;3.75;;
46561;SDS011;32289;42.688;23.330;2023-09-19T13:15:20;6.43;;;3.95;;
46561;SDS011;32289;42.688;23.330;2023-09-19T13:19:03;7.45;;;3.83;;
46561;SDS011;32289;42.688;23.330;2023-09-19T13:22:45;5.90;;;3.72;;
46561;SDS011;32289;42.688;23.330;2023-09-19T13:26:34;9.85;;;4.15;;
46561;SDS011;32289;42.688;23.330;2023-09-19T13:30:14;5.95;;;3.70;;
46561;SDS011;32289;42.688;23.330;2023-09-19T13:33:55;5.55;;;3.40;;
46561;SDS011;32289;42.688;23.330;2023-09-19T13:37:37;6.57;;;3.75;;
46561;SDS011;32289;42.688;23.330;2023-09-19T13:41:21;4.55;;;3.47;;
46561;SDS011;32289;42.688;23.330;2023-09-19T13:45:04;7.07;;;3.88;;
46561;SDS011;32289;42.688;23.330;2023-09-19T13:48:45;6.82;;;3.55;;
46561;SDS011;32289;42.688;23.330;2023-09-19T13:52:26;9.32;;;4.00;;
46561;SDS011;32289;42.688;23.330;2023-09-19T13:56:10;5.03;;;3.50;;
46561;SDS011;32289;42.688;23.330;2023-09-19T13:59:51;10.20;;;4.20;;
46561;SDS011;32289;42.688;23.330;2023-09-19T14:03:34;9.65;;;3.97;;
46561;SDS011;32289;42.688;23.330;2023-09-19T14:07:15;14.95;;;4.80;;
46561;SDS011;32289;42.688;23.330;2023-09-19T14:10:57;7.03;;;4.18;;
46561;SDS011;32289;42.688;23.330;2023-09-19T14:14:38;7.80;;;3.60;;
46561;SDS011;32289;42.688;23.330;2023-09-19T14:18:19;12.77;;;4.72;;
46561;SDS011;32289;42.688;23.330;2023-09-19T14:22:02;9.82;;;3.92;;
46561;SDS011;32289;42.688;23.330;2023-09-19T14:25:47;8.70;;;4.22;;
46561;SDS011;32289;42.688;23.330;2023-09-19T14:29:29;5.53;;;4.00;;
46561;SDS011;32289;42.688;23.330;2023-09-19T14:33:10;8.23;;;4.50;;
46561;SDS011;32289;42.688;23.330;2023-09-19T14:36:52;7.53;;;4.15;;
46561;SDS011;32289;42.688;23.330;2023-09-19T14:40:34;8.80;;;4.13;;
46561;SDS011;32289;42.688;23.330;2023-09-19T14:44:16;6.45;;;4.03;;
46561;SDS011;32289;42.688;23.330;2023-09-19T14:47:57;6.25;;;4.07;;
46561;SDS011;32289;42.688;23.330;2023-09-19T14:51:37;7.43;;;3.53;;
46561;SDS011;32289;42.688;23.330;2023-09-19T14:55:22;7.05;;;4.60;;
46561;SDS011;32289;42.688;23.330;2023-09-19T14:59:03;7.30;;;4.13;;
46561;SDS011;32289;42.688;23.330;2023-09-19T15:02:44;6.35;;;4.15;;
46561;SDS011;32289;42.688;23.330;2023-09-19T15:06:29;6.32;;;4.30;;
46561;SDS011;32289;42.688;23.330;2023-09-19T15:10:10;6.25;;;4.30;;
46561;SDS011;32289;42.688;23.330;2023-09-19T15:13:53;8.57;;;4.30;;
46561;SDS011;32289;42.688;23.330;2023-09-19T15:17:35;6.50;;;4.18;;
46561;SDS011;32289;42.688;23.330;2023-09-19T15:21:17;7.20;;;3.92;;
46561;SDS011;32289;42.688;23.330;2023-09-19T15:24:58;8.13;;;4.30;;
46561;SDS011;32289;42.688;23.330;2023-09-19T15:28:39;6.95;;;4.35;;
46561;SDS011;32289;42.688;23.330;2023-09-19T15:32:20;7.75;;;4.32;;
46561;SDS011;32289;42.688;23.330;2023-09-19T15:39:42;8.80;;;4.30;;
46561;SDS011;32289;42.688;23.330;2023-09-19T15:43:24;5.72;;;3.63;;
46561;SDS011;32289;42.688;23.330;2023-09-19T15:47:05;6.70;;;4.20;;
46561;SDS011;32289;42.688;23.330;2023-09-19T15:50:46;6.65;;;3.90;;
46561;SDS011;32289;42.688;23.330;2023-09-19T15:54:27;8.13;;;4.38;;
46561;SDS011;32289;42.688;23.330;2023-09-19T15:58:07;9.05;;;4.57;;
46561;SDS011;32289;42.688;23.330;2023-09-19T16:01:48;6.07;;;3.80;;
46561;SDS011;32289;42.688;23.330;2023-09-19T16:05:36;9.43;;;4.50;;
46561;SDS011;32289;42.688;23.330;2023-09-19T16:09:19;9.77;;;4.22;;
46561;SDS011;32289;42.688;23.330;2023-09-19T16:13:00;15.02;;;4.95;;
46561;SDS011;32289;42.688;23.330;2023-09-19T16:16:40;8.43;;;4.63;;
46561;SDS011;32289;42.688;23.330;2023-09-19T16:20:21;11.35;;;4.47;;
46561;SDS011;32289;42.688;23.330;2023-09-19T16:24:03;8.90;;;4.15;;
46561;SDS011;32289;42.688;23.330;2023-09-19T16:27:44;11.15;;;4.45;;
46561;SDS011;32289;42.688;23.330;2023-09-19T16:31:25;9.18;;;5.38;;
46561;SDS011;32289;42.688;23.330;2023-09-19T16:35:06;8.25;;;4.30;;
46561;SDS011;32289;42.688;23.330;2023-09-19T16:38:49;8.90;;;4.95;;
46561;SDS011;32289;42.688;23.330;2023-09-19T16:42:30;12.02;;;5.68;;
46561;SDS011;32289;42.688;23.330;2023-09-19T16:46:11;10.27;;;4.70;;
46561;SDS011;32289;42.688;23.330;2023-09-19T16:49:53;15.48;;;5.93;;
46561;SDS011;32289;42.688;23.330;2023-09-19T16:53:34;14.73;;;6.85;;
46561;SDS011;32289;42.688;23.330;2023-09-19T16:57:16;18.75;;;7.60;;
46561;SDS011;32289;42.688;23.330;2023-09-19T17:00:56;15.02;;;7.40;;
46561;SDS011;32289;42.688;23.330;2023-09-19T17:04:37;15.15;;;6.20;;
46561;SDS011;32289;42.688;23.330;2023-09-19T17:08:18;17.02;;;7.72;;
46561;SDS011;32289;42.688;23.330;2023-09-19T17:11:59;19.10;;;9.90;;
46561;SDS011;32289;42.688;23.330;2023-09-19T17:15:39;24.45;;;10.05;;
46561;SDS011;32289;42.688;23.330;2023-09-19T17:19:20;22.00;;;11.40;;
46561;SDS011;32289;42.688;23.330;2023-09-19T17:23:03;22.85;;;11.10;;
46561;SDS011;32289;42.688;23.330;2023-09-19T17:26:43;19.80;;;10.82;;
46561;SDS011;32289;42.688;23.330;2023-09-19T17:30:24;18.38;;;7.32;;
46561;SDS011;32289;42.688;23.330;2023-09-19T17:34:07;13.45;;;7.55;;
46561;SDS011;32289;42.688;23.330;2023-09-19T17:37:48;16.48;;;6.85;;
46561;SDS011;32289;42.688;23.330;2023-09-19T17:41:28;10.73;;;7.20;;
46561;SDS011;32289;42.688;23.330;2023-09-19T17:45:09;15.20;;;7.70;;
46561;SDS011;32289;42.688;23.330;2023-09-19T17:49:00;15.55;;;6.70;;
46561;SDS011;32289;42.688;23.330;2023-09-19T17:52:41;12.05;;;5.43;;
46561;SDS011;32289;42.688;23.330;2023-09-19T17:56:22;9.98;;;5.35;;
46561;SDS011;32289;42.688;23.330;2023-09-19T18:00:04;7.40;;;4.90;;
46561;SDS011;32289;42.688;23.330;2023-09-19T18:03:49;11.73;;;4.88;;
46561;SDS011;32289;42.688;23.330;2023-09-19T18:07:37;7.70;;;5.10;;
46561;SDS011;32289;42.688;23.330;2023-09-19T18:11:18;8.60;;;4.72;;
46561;SDS011;32289;42.688;23.330;2023-09-19T18:14:59;10.80;;;4.65;;
46561;SDS011;32289;42.688;23.330;2023-09-19T18:18:40;8.63;;;4.82;;
46561;SDS011;32289;42.688;23.330;2023-09-19T18:22:21;6.65;;;4.40;;
46561;SDS011;32289;42.688;23.330;2023-09-19T18:26:02;9.60;;;5.15;;
46561;SDS011;32289;42.688;23.330;2023-09-19T18:29:45;10.95;;;5.13;;
46561;SDS011;32289;42.688;23.330;2023-09-19T18:33:27;11.02;;;5.07;;
46561;SDS011;32289;42.688;23.330;2023-09-19T18:37:09;13.25;;;5.07;;
46561;SDS011;32289;42.688;23.330;2023-09-19T18:40:51;7.63;;;4.40;;
46561;SDS011;32289;42.688;23.330;2023-09-19T18:44:31;11.90;;;4.88;;
46561;SDS011;32289;42.688;23.330;2023-09-19T18:48:12;7.03;;;4.85;;
46561;SDS011;32289;42.688;23.330;2023-09-19T18:51:53;8.82;;;4.53;;
46561;SDS011;32289;42.688;23.330;2023-09-19T18:55:36;8.15;;;5.05;;
46561;SDS011;32289;42.688;23.330;2023-09-19T18:59:17;8.70;;;4.60;;
46561;SDS011;32289;42.688;23.330;2023-09-19T19:03:02;12.98;;;6.75;;
46561;SDS011;32289;42.688;23.330;2023-09-19T19:06:45;14.77;;;7.60;;
46561;SDS011;32289;42.688;23.330;2023-09-19T19:10:25;7.20;;;4.43;;
46561;SDS011;32289;42.688;23.330;2023-09-19T19:14:06;7.72;;;4.47;;
46561;SDS011;32289;42.688;23.330;2023-09-19T19:17:48;6.70;;;4.40;;
46561;SDS011;32289;42.688;23.330;2023-09-19T19:21:29;8.48;;;4.00;;
46561;SDS011;32289;42.688;23.330;2023-09-19T19:25:11;9.63;;;3.85;;
46561;SDS011;32289;42.688;23.330;2023-09-19T19:28:52;8.25;;;4.45;;
46561;SDS011;32289;42.688;23.330;2023-09-19T19:32:32;7.20;;;3.90;;
46561;SDS011;32289;42.688;23.330;2023-09-19T19:36:13;9.15;;;4.45;;
46561;SDS011;32289;42.688;23.330;2023-09-19T19:39:55;8.52;;;3.92;;
46561;SDS011;32289;42.688;23.330;2023-09-19T19:43:35;7.20;;;3.97;;
46561;SDS011;32289;42.688;23.330;2023-09-19T19:47:16;9.30;;;4.00;;
46561;SDS011;32289;42.688;23.330;2023-09-19T19:50:57;10.10;;;3.50;;
46561;SDS011;32289;42.688;23.330;2023-09-19T19:54:39;8.35;;;4.32;;
46561;SDS011;32289;42.688;23.330;2023-09-19T19:58:20;12.45;;;4.13;;
46561;SDS011;32289;42.688;23.330;2023-09-19T20:02:05;8.63;;;3.88;;
46561;SDS011;32289;42.688;23.330;2023-09-19T20:05:47;8.18;;;4.00;;
46561;SDS011;32289;42.688;23.330;2023-09-19T20:09:28;7.47;;;4.32;;
46561;SDS011;32289;42.688;23.330;2023-09-19T20:13:09;6.82;;;4.20;;
46561;SDS011;32289;42.688;23.330;2023-09-19T20:16:51;6.88;;;3.92;;
46561;SDS011;32289;42.688;23.330;2023-09-19T20:20:34;9.82;;;4.05;;
46561;SDS011;32289;42.688;23.330;2023-09-19T20:24:15;11.63;;;4.75;;
46561;SDS011;32289;42.688;23.330;2023-09-19T20:28:03;12.82;;;5.45;;
46561;SDS011;32289;42.688;23.330;2023-09-19T20:31:44;12.75;;;5.95;;
46561;SDS011;32289;42.688;23.330;2023-09-19T20:35:25;19.42;;;6.13;;
46561;SDS011;32289;42.688;23.330;2023-09-19T20:39:07;15.82;;;6.78;;
46561;SDS011;32289;42.688;23.330;2023-09-19T20:42:50;13.07;;;6.15;;
46561;SDS011;32289;42.688;23.330;2023-09-19T20:46:30;14.27;;;6.38;;
46561;SDS011;32289;42.688;23.330;2023-09-19T20:50:11;13.07;;;5.82;;
46561;SDS011;32289;42.688;23.330;2023-09-19T20:53:52;17.60;;;5.88;;
46561;SDS011;32289;42.688;23.330;2023-09-19T20:57:33;16.67;;;5.65;;
46561;SDS011;32289;42.688;23.330;2023-09-19T21:01:14;20.17;;;6.35;;
46561;SDS011;32289;42.688;23.330;2023-09-19T21:04:55;14.30;;;6.47;;
46561;SDS011;32289;42.688;23.330;2023-09-19T21:08:37;13.95;;;5.18;;
46561;SDS011;32289;42.688;23.330;2023-09-19T21:12:17;14.05;;;5.18;;
46561;SDS011;32289;42.688;23.330;2023-09-19T21:16:00;12.23;;;4.65;;
46561;SDS011;32289;42.688;23.330;2023-09-19T21:19:41;11.77;;;4.78;;
46561;SDS011;32289;42.688;23.330;2023-09-19T21:23:22;10.88;;;4.47;;
46561;SDS011;32289;42.688;23.330;2023-09-19T21:27:02;8.45;;;4.35;;
46561;SDS011;32289;42.688;23.330;2023-09-19T21:30:44;9.80;;;3.83;;
46561;SDS011;32289;42.688;23.330;2023-09-19T21:34:25;10.13;;;3.63;;
46561;SDS011;32289;42.688;23.330;2023-09-19T21:38:06;7.30;;;3.40;;
46561;SDS011;32289;42.688;23.330;2023-09-19T21:41:48;6.53;;;3.42;;
46561;SDS011;32289;42.688;23.330;2023-09-19T21:45:32;8.80;;;3.53;;
46561;SDS011;32289;42.688;23.330;2023-09-19T21:49:13;7.53;;;3.35;;
46561;SDS011;32289;42.688;23.330;2023-09-19T21:52:54;10.05;;;3.63;;
46561;SDS011;32289;42.688;23.330;2023-09-19T21:56:35;8.48;;;3.90;;
46561;SDS011;32289;42.688;23.330;2023-09-19T22:00:17;7.40;;;3.25;;
46561;SDS011;32289;42.688;23.330;2023-09-19T22:04:13;10.40;;;4.60;;
46561;SDS011;32289;42.688;23.330;2023-09-19T22:07:55;5.80;;;2.88;;
46561;SDS011;32289;42.688;23.330;2023-09-19T22:11:37;5.30;;;2.70;;
46561;SDS011;32289;42.688;23.330;2023-09-19T22:15:17;4.68;;;3.00;;
46561;SDS011;32289;42.688;23.330;2023-09-19T22:18:58;8.05;;;3.00;;
46561;SDS011;32289;42.688;23.330;2023-09-19T22:22:39;5.15;;;2.83;;
46561;SDS011;32289;42.688;23.330;2023-09-19T22:26:20;6.20;;;2.90;;
46561;SDS011;32289;42.688;23.330;2023-09-19T22:30:04;6.53;;;2.88;;
46561;SDS011;32289;42.688;23.330;2023-09-19T22:33:46;5.53;;;2.58;;
46561;SDS011;32289;42.688;23.330;2023-09-19T22:37:30;5.10;;;2.78;;
46561;SDS011;32289;42.688;23.330;2023-09-19T22:41:13;7.63;;;3.58;;
46561;SDS011;32289;42.688;23.330;2023-09-19T22:44:56;4.57;;;2.55;;
46561;SDS011;32289;42.688;23.330;2023-09-19T22:48:38;5.10;;;2.50;;
46561;SDS011;32289;42.688;23.330;2023-09-19T22:52:18;5.88;;;2.45;;
46561;SDS011;32289;42.688;23.330;2023-09-19T22:56:01;4.60;;;2.00;;
46561;SDS011;32289;42.688;23.330;2023-09-19T22:59:50;7.40;;;2.13;;